createdAt,value
2018-07-17T00:00:08.927Z,20.19
2018-07-17T00:02:43.255Z,20.20
2018-07-17T00:05:17.810Z,20.05
2018-07-17T00:07:52.460Z,19.97
2018-07-17T00:10:26.859Z,20.07
2018-07-17T00:13:01.419Z,20.09
2018-07-17T00:15:35.960Z,20.07
2018-07-17T00:18:10.384Z,20.21
2018-07-17T00:20:45.092Z,20.29
2018-07-17T00:23:19.725Z,20.33
2018-07-17T00:25:54.247Z,20.38
2018-07-17T00:28:28.881Z,20.28
2018-07-17T00:31:03.384Z,20.27
2018-07-17T00:33:37.833Z,20.34
2018-07-17T00:36:12.179Z,20.43
2018-07-17T00:38:46.736Z,20.37
2018-07-17T00:41:21.378Z,20.28
2018-07-17T00:43:55.860Z,20.26
2018-07-17T00:46:30.480Z,20.24
2018-07-17T00:49:04.891Z,20.34
2018-07-17T00:51:39.393Z,20.38
2018-07-17T00:54:13.937Z,20.39
2018-07-17T00:56:48.570Z,20.40
2018-07-17T00:59:22.953Z,20.32
2018-07-17T01:02:02.743Z,20.26
2018-07-17T01:04:42.548Z,20.20
2018-07-17T01:07:22.559Z,20.22
2018-07-17T01:10:02.486Z,20.15
2018-07-17T01:12:36.221Z,20.07
2018-07-17T01:15:29.722Z,20.15
2018-07-17T01:18:04.334Z,20.16
2018-07-17T01:20:38.866Z,20.16
2018-07-17T01:23:13.529Z,20.03
2018-07-17T01:25:48.131Z,20.01
2018-07-17T01:28:22.715Z,20.02
2018-07-17T01:30:57.370Z,20.11
2018-07-17T01:33:31.877Z,20.12
2018-07-17T01:36:06.310Z,20.17
2018-07-17T01:38:40.847Z,20.24
2018-07-17T01:41:15.313Z,20.20
2018-07-17T01:43:49.875Z,20.10
2018-07-17T01:46:24.408Z,20.09
2018-07-17T01:48:58.905Z,20.07
2018-07-17T01:51:33.425Z,19.99
2018-07-17T01:54:08.226Z,20.02
2018-07-17T01:56:42.784Z,20.10
2018-07-17T01:59:17.247Z,20.21
2018-07-17T02:01:51.812Z,20.14
2018-07-17T02:04:26.230Z,20.15
2018-07-17T02:07:01.024Z,20.10
2018-07-17T02:09:35.565Z,20.17
2018-07-17T02:12:10.198Z,20.17
2018-07-17T02:14:44.760Z,20.24
2018-07-17T02:17:19.324Z,20.31
2018-07-17T02:19:53.931Z,20.18
2018-07-17T02:22:28.516Z,20.11
2018-07-17T02:25:06.536Z,20.12
2018-07-17T02:27:41.028Z,20.07
2018-07-17T02:30:15.539Z,19.96
2018-07-17T02:32:50.048Z,19.87
2018-07-17T02:35:24.564Z,19.88
2018-07-17T02:37:59.182Z,19.75
2018-07-17T02:40:33.750Z,19.62
2018-07-17T02:43:08.409Z,19.49
2018-07-17T02:45:50.435Z,19.38
2018-07-17T02:48:25.199Z,19.23
2018-07-17T02:50:59.880Z,19.18
2018-07-17T02:53:45.085Z,19.13
2018-07-17T02:56:27.998Z,19.10
2018-07-17T02:59:02.474Z,19.07
2018-07-17T03:01:36.927Z,19.06
2018-07-17T03:04:11.433Z,19.03
2018-07-17T03:06:46.543Z,19.02
2018-07-17T03:09:21.353Z,19.06
2018-07-17T03:11:55.836Z,19.08
2018-07-17T03:14:30.204Z,19.04
2018-07-17T03:17:04.621Z,18.94
2018-07-17T03:19:38.946Z,18.80
2018-07-17T03:22:13.576Z,18.79
2018-07-17T03:24:48.153Z,18.96
2018-07-17T03:27:22.743Z,19.07
2018-07-17T03:29:57.434Z,19.20
2018-07-17T03:32:32.137Z,19.28
2018-07-17T03:35:06.630Z,19.27
2018-07-17T03:37:41.255Z,19.18
2018-07-17T03:40:15.857Z,19.05
2018-07-17T03:42:50.394Z,18.95
2018-07-17T03:45:24.989Z,18.84
2018-07-17T03:47:59.532Z,18.80
2018-07-17T03:50:34.084Z,18.76
2018-07-17T03:53:08.612Z,18.76
2018-07-17T03:55:42.968Z,18.88
2018-07-17T03:58:17.579Z,18.95
2018-07-17T04:00:52.087Z,18.89
2018-07-17T04:03:26.598Z,18.88
2018-07-17T04:06:01.254Z,18.93
2018-07-17T04:08:35.732Z,18.99
2018-07-17T04:11:10.136Z,19.08
2018-07-17T04:13:44.737Z,19.17
2018-07-17T04:16:19.258Z,19.29
2018-07-17T04:18:53.654Z,19.37
2018-07-17T04:21:28.022Z,19.45
2018-07-17T04:24:02.401Z,19.44
2018-07-17T04:26:36.739Z,19.39
2018-07-17T04:29:11.353Z,19.33
2018-07-17T04:31:46.007Z,19.35
2018-07-17T04:34:20.434Z,19.19
2018-07-17T04:36:54.956Z,19.22
2018-07-17T04:39:29.429Z,19.29
2018-07-17T04:42:04.128Z,19.15
2018-07-17T04:44:38.820Z,19.21
2018-07-17T04:47:13.342Z,19.28
2018-07-17T04:49:47.756Z,19.16
2018-07-17T04:52:22.351Z,19.06
2018-07-17T04:54:56.822Z,19.10
2018-07-17T04:57:31.328Z,19.11
2018-07-17T05:00:05.821Z,19.00
2018-07-17T05:02:40.514Z,19.03
2018-07-17T05:05:14.997Z,19.07
2018-07-17T05:07:49.726Z,19.17
2018-07-17T05:10:24.312Z,19.18
2018-07-17T05:12:58.822Z,19.16
2018-07-17T05:15:33.599Z,19.31
2018-07-17T05:18:08.210Z,19.28
2018-07-17T05:20:42.971Z,19.52
2018-07-17T05:23:17.731Z,19.66
2018-07-17T05:25:52.556Z,19.62
2018-07-17T05:28:27.079Z,19.77
2018-07-17T05:31:01.756Z,19.74
2018-07-17T05:33:36.322Z,19.88
2018-07-17T05:36:10.971Z,19.85
2018-07-17T05:38:45.565Z,20.06
2018-07-17T05:41:20.096Z,20.06
2018-07-17T05:43:54.557Z,20.33
2018-07-17T05:46:29.130Z,20.22
2018-07-17T05:49:03.536Z,20.41
2018-07-17T05:51:38.229Z,20.41
2018-07-17T05:54:12.863Z,20.72
2018-07-17T05:56:47.603Z,20.68
2018-07-17T05:59:22.233Z,20.75
2018-07-17T06:01:56.716Z,20.75
2018-07-17T06:04:31.360Z,20.75
2018-07-17T06:07:06.009Z,20.94
2018-07-17T06:09:40.552Z,20.98
2018-07-17T06:12:15.263Z,21.27
2018-07-17T06:14:49.778Z,21.51
2018-07-17T06:17:24.285Z,21.58
2018-07-17T06:19:58.867Z,21.89
2018-07-17T06:22:33.448Z,22.05
2018-07-17T06:28:10.717Z,22.28
2018-07-17T06:30:45.192Z,22.41
2018-07-17T06:33:19.672Z,22.68
2018-07-17T06:35:54.202Z,23.02
2018-07-17T06:38:28.687Z,24.53
2018-07-17T06:41:03.376Z,26.25
2018-07-17T06:43:37.825Z,27.86
2018-07-17T06:46:12.212Z,29.04
2018-07-17T06:48:46.800Z,29.25
2018-07-17T06:51:21.297Z,30.24
2018-07-17T06:53:56.300Z,30.24
2018-07-17T06:56:30.584Z,31.62
2018-07-17T06:59:05.032Z,31.05
2018-07-17T07:01:39.547Z,31.32
2018-07-17T07:04:14.110Z,31.97
2018-07-17T07:06:48.649Z,32.82
2018-07-17T07:09:23.438Z,33.91
2018-07-17T07:11:57.994Z,34.93
2018-07-17T07:14:32.598Z,34.15
2018-07-17T07:17:07.191Z,33.03
2018-07-17T07:19:41.604Z,30.96
2018-07-17T07:22:16.053Z,27.97
2018-07-17T07:24:50.410Z,26.72
2018-07-17T07:27:24.889Z,25.87
2018-07-17T07:29:59.532Z,25.18
2018-07-17T07:32:34.012Z,24.33
2018-07-17T07:35:08.461Z,24.38
2018-07-17T07:37:42.981Z,23.64
2018-07-17T07:40:17.524Z,23.57
2018-07-17T07:42:52.166Z,23.59
2018-07-17T07:45:26.528Z,24.19
2018-07-17T07:48:00.968Z,24.30
2018-07-17T07:50:35.359Z,24.34
2018-07-17T07:53:09.887Z,24.41
2018-07-17T07:55:44.551Z,24.37
2018-07-17T07:58:19.032Z,25.46
2018-07-17T08:00:53.598Z,25.82
2018-07-17T08:03:28.061Z,25.92
2018-07-17T08:06:02.616Z,26.12
2018-07-17T08:08:37.080Z,25.73
2018-07-17T08:11:11.580Z,25.06
2018-07-17T08:13:46.211Z,24.36
2018-07-17T08:16:20.865Z,23.61
2018-07-17T08:18:55.355Z,23.63
2018-07-17T08:21:29.785Z,23.77
2018-07-17T08:24:04.200Z,23.88
2018-07-17T08:26:38.680Z,24.25
2018-07-17T08:29:13.116Z,26.29
2018-07-17T08:31:47.585Z,28.67
2018-07-17T08:34:22.205Z,31.40
2018-07-17T08:36:56.673Z,33.70
2018-07-17T08:39:31.004Z,34.92
2018-07-17T08:42:09.308Z,35.00
2018-07-17T08:44:49.243Z,32.86
2018-07-17T08:47:23.808Z,33.10
2018-07-17T08:49:58.420Z,35.00
2018-07-17T08:52:32.812Z,36.67
2018-07-17T08:55:07.307Z,34.58
2018-07-17T08:57:41.941Z,34.57
2018-07-17T09:00:16.397Z,33.79
2018-07-17T09:02:50.961Z,32.51
2018-07-17T09:05:25.477Z,30.82
2018-07-17T09:07:59.964Z,30.98
2018-07-17T09:10:34.341Z,29.65
2018-07-17T09:13:08.834Z,29.32
2018-07-17T09:15:43.387Z,30.09
2018-07-17T09:18:18.130Z,29.70
2018-07-17T09:20:52.527Z,32.16
2018-07-17T09:23:27.016Z,34.31
2018-07-17T09:26:01.738Z,32.97
2018-07-17T09:28:36.258Z,30.15
2018-07-17T09:31:10.697Z,30.14
2018-07-17T09:33:45.330Z,29.67
2018-07-17T09:36:19.760Z,29.52
2018-07-17T09:38:54.358Z,27.55
2018-07-17T09:41:28.724Z,27.79
2018-07-17T09:44:03.136Z,27.88
2018-07-17T09:46:37.767Z,27.79
2018-07-17T09:49:22.129Z,26.79
2018-07-17T09:52:02.668Z,27.37
2018-07-17T09:54:45.893Z,27.43
2018-07-17T09:57:31.306Z,29.38
2018-07-17T10:00:05.654Z,31.32
2018-07-17T10:02:40.037Z,32.48
2018-07-17T10:05:14.503Z,31.43
2018-07-17T10:07:49.021Z,28.92
2018-07-17T10:10:24.596Z,29.14
2018-07-17T10:12:59.112Z,28.50
2018-07-17T10:15:33.592Z,30.90
2018-07-17T10:18:08.113Z,33.36
2018-07-17T10:20:42.624Z,34.21
2018-07-17T10:23:17.330Z,32.46
2018-07-17T10:25:51.756Z,34.98
2018-07-17T10:28:26.208Z,36.24
2018-07-17T10:31:01.051Z,34.62
2018-07-17T10:33:35.620Z,37.26
2018-07-17T10:36:10.109Z,38.42
2018-07-17T10:38:44.716Z,36.89
2018-07-17T10:41:19.299Z,36.81
2018-07-17T10:43:53.933Z,36.12
2018-07-17T10:46:28.408Z,37.26
2018-07-17T10:49:02.699Z,37.68
2018-07-17T10:51:37.045Z,37.28
2018-07-17T10:54:11.579Z,36.38
2018-07-17T10:56:46.001Z,36.34
2018-07-17T10:59:20.447Z,34.62
2018-07-17T11:01:55.060Z,33.01
2018-07-17T11:04:29.645Z,36.07
2018-07-17T11:07:10.271Z,36.35
2018-07-17T11:10:00.081Z,35.61
2018-07-17T11:12:34.492Z,37.44
2018-07-17T11:15:09.027Z,35.76
2018-07-17T11:17:43.537Z,35.88
2018-07-17T11:20:18.024Z,35.45
2018-07-17T11:22:52.596Z,36.08
2018-07-17T11:25:27.077Z,36.94
2018-07-17T11:28:01.557Z,37.34
2018-07-17T11:30:36.075Z,34.69
2018-07-17T11:33:31.109Z,35.98
2018-07-17T11:36:05.757Z,33.61
2018-07-17T11:38:40.370Z,36.76
2018-07-17T11:41:14.832Z,34.82
2018-07-17T11:43:49.360Z,34.92
2018-07-17T11:46:24.807Z,36.31
2018-07-17T11:48:59.519Z,36.82
2018-07-17T11:51:33.877Z,36.77
2018-07-17T11:54:08.340Z,35.17
2018-07-17T11:56:42.864Z,35.01
2018-07-17T11:59:17.338Z,34.41
2018-07-17T12:01:51.849Z,34.46
2018-07-17T12:04:26.457Z,33.83
2018-07-17T12:07:00.819Z,32.70
2018-07-17T12:09:35.316Z,31.06
2018-07-17T12:12:09.860Z,31.36
2018-07-17T12:14:44.351Z,31.41
2018-07-17T12:17:18.946Z,31.25
2018-07-17T12:19:53.569Z,30.74
2018-07-17T12:22:28.137Z,29.42
2018-07-17T12:25:02.650Z,29.29
2018-07-17T12:27:45.338Z,29.14
2018-07-17T12:30:19.756Z,29.09
2018-07-17T12:32:54.101Z,29.11
2018-07-17T12:35:28.598Z,29.08
2018-07-17T12:38:03.247Z,29.36
2018-07-17T12:40:45.079Z,29.54
2018-07-17T12:43:22.935Z,29.34
2018-07-17T12:45:57.485Z,29.19
2018-07-17T12:48:32.040Z,29.52
2018-07-17T12:51:06.513Z,29.59
2018-07-17T12:53:40.944Z,29.59
2018-07-17T12:56:15.518Z,29.03
2018-07-17T12:58:50.510Z,29.22
2018-07-17T13:01:24.986Z,29.03
2018-07-17T13:03:59.400Z,29.21
2018-07-17T13:06:33.832Z,29.37
2018-07-17T13:09:09.277Z,29.56
2018-07-17T13:11:43.704Z,29.43
2018-07-17T13:14:18.112Z,28.84
2018-07-17T13:16:52.676Z,28.89
2018-07-17T13:19:27.180Z,29.00
2018-07-17T13:22:01.661Z,29.11
2018-07-17T13:24:36.281Z,28.77
2018-07-17T13:27:10.656Z,29.08
2018-07-17T13:29:45.345Z,28.87
2018-07-17T13:32:19.982Z,28.96
2018-07-17T13:35:07.460Z,28.85
2018-07-17T13:37:41.947Z,29.13
2018-07-17T13:40:16.522Z,28.71
2018-07-17T13:42:51.004Z,28.97
2018-07-17T13:45:25.572Z,29.09
2018-07-17T13:48:00.156Z,28.91
2018-07-17T13:50:35.464Z,28.78
2018-07-17T13:53:10.018Z,28.83
2018-07-17T13:55:44.543Z,28.70
2018-07-17T13:58:19.018Z,28.78
2018-07-17T14:00:53.488Z,28.59
2018-07-17T14:03:28.000Z,28.74
2018-07-17T14:06:02.610Z,29.13
2018-07-17T14:08:37.317Z,29.23
2018-07-17T14:11:12.020Z,29.49
2018-07-17T14:13:46.576Z,29.14
2018-07-17T14:16:21.119Z,28.70
2018-07-17T14:18:55.471Z,28.52
2018-07-17T14:21:31.610Z,28.55
2018-07-17T14:24:06.120Z,29.40
2018-07-17T14:26:40.680Z,29.08
2018-07-17T14:29:15.255Z,28.87
2018-07-17T14:31:49.866Z,29.95
2018-07-17T14:34:24.438Z,30.08
2018-07-17T14:36:58.820Z,30.67
2018-07-17T14:39:33.477Z,30.98
2018-07-17T14:42:08.029Z,31.58
2018-07-17T14:44:42.414Z,30.68
2018-07-17T14:47:17.097Z,29.73
2018-07-17T14:49:51.679Z,29.33
2018-07-17T14:52:26.272Z,28.94
2018-07-17T14:55:01.135Z,28.96
2018-07-17T14:57:35.672Z,29.58
2018-07-17T15:00:10.852Z,30.19
2018-07-17T15:02:45.256Z,30.13
2018-07-17T15:05:19.731Z,29.28
2018-07-17T15:07:54.196Z,29.37
2018-07-17T15:10:28.673Z,29.28
2018-07-17T15:13:03.176Z,29.30
2018-07-17T15:15:37.775Z,31.05
2018-07-17T15:18:12.070Z,30.92
2018-07-17T15:20:46.447Z,30.43
2018-07-17T15:23:20.964Z,29.75
2018-07-17T15:25:55.513Z,29.28
2018-07-17T15:28:29.996Z,28.87
2018-07-17T15:31:04.348Z,28.76
2018-07-17T15:33:38.765Z,28.53
2018-07-17T15:36:13.620Z,28.24
2018-07-17T15:38:48.206Z,28.53
2018-07-17T15:41:22.824Z,28.47
2018-07-17T15:43:57.277Z,28.20
2018-07-17T15:46:31.757Z,27.76
2018-07-17T15:49:06.218Z,27.62
2018-07-17T15:51:40.687Z,27.37
2018-07-17T15:54:15.164Z,27.27
2018-07-17T15:56:49.545Z,27.36
2018-07-17T15:59:23.868Z,27.25
2018-07-17T16:01:58.404Z,27.20
2018-07-17T16:04:33.170Z,27.20
2018-07-17T16:07:07.593Z,27.20
2018-07-17T16:09:42.180Z,27.29
2018-07-17T16:12:16.697Z,27.30
2018-07-17T16:14:51.254Z,27.37
2018-07-17T16:17:25.887Z,27.31
2018-07-17T16:20:00.331Z,27.27
2018-07-17T16:22:34.845Z,27.37
2018-07-17T16:25:09.476Z,27.34
2018-07-17T16:27:43.969Z,27.30
2018-07-17T16:30:18.632Z,27.10
2018-07-17T16:32:53.357Z,26.64
2018-07-17T16:35:27.956Z,26.50
2018-07-17T16:38:02.310Z,26.46
2018-07-17T16:40:36.830Z,26.27
2018-07-17T16:43:11.229Z,26.16
2018-07-17T16:45:45.840Z,26.06
2018-07-17T16:48:20.303Z,26.08
2018-07-17T16:50:54.748Z,26.16
2018-07-17T16:53:29.231Z,26.31
2018-07-17T16:56:03.776Z,26.35
2018-07-17T16:58:38.507Z,26.39
2018-07-17T17:01:12.949Z,26.49
2018-07-17T17:03:47.297Z,26.71
2018-07-17T17:06:21.941Z,26.44
2018-07-17T17:08:56.499Z,26.39
2018-07-17T17:11:31.065Z,26.26
2018-07-17T17:14:05.614Z,26.15
2018-07-17T17:16:40.544Z,26.30
2018-07-17T17:19:15.125Z,26.07
2018-07-17T17:21:49.769Z,25.86
2018-07-17T17:24:24.402Z,25.74
2018-07-17T17:26:58.805Z,25.79
2018-07-17T17:29:33.643Z,25.76
2018-07-17T17:32:08.214Z,25.74
2018-07-17T17:34:42.678Z,25.77
2018-07-17T17:37:17.167Z,25.67
2018-07-17T17:39:51.558Z,25.73
2018-07-17T17:42:25.834Z,25.68
2018-07-17T17:45:00.324Z,25.59
2018-07-17T17:47:34.723Z,25.48
2018-07-17T17:50:09.005Z,25.35
2018-07-17T17:52:43.259Z,25.33
2018-07-17T17:55:17.651Z,25.28
2018-07-17T17:57:52.144Z,25.21
2018-07-17T18:00:26.773Z,25.10
2018-07-17T18:03:01.426Z,25.06
2018-07-17T18:05:36.063Z,25.15
2018-07-17T18:08:10.528Z,25.08
2018-07-17T18:10:45.504Z,25.05
2018-07-17T18:13:20.088Z,24.56
2018-07-17T18:15:54.540Z,24.32
2018-07-17T18:18:28.988Z,23.83
2018-07-17T18:21:03.511Z,23.65
2018-07-17T18:23:38.115Z,23.42
2018-07-17T18:26:14.022Z,23.14
2018-07-17T18:29:07.137Z,22.67
2018-07-17T18:31:41.863Z,22.46
2018-07-17T18:34:16.409Z,22.27
2018-07-17T18:37:09.676Z,22.22
2018-07-17T18:39:44.255Z,22.18
2018-07-17T18:42:18.870Z,22.10
2018-07-17T18:44:53.500Z,22.11
2018-07-17T18:47:27.836Z,22.18
2018-07-17T18:50:12.584Z,22.27
2018-07-17T18:52:36.838Z,22.38
2018-07-17T18:55:11.211Z,22.38
2018-07-17T18:57:45.769Z,22.41
2018-07-17T19:00:20.111Z,22.34
2018-07-17T19:02:54.461Z,22.33
2018-07-17T19:05:28.824Z,22.38
2018-07-17T19:08:03.284Z,22.24
2018-07-17T19:10:37.696Z,22.26
2018-07-17T19:13:12.266Z,22.17
2018-07-17T19:15:54.193Z,22.09
2018-07-17T19:18:28.640Z,22.05
2018-07-17T19:21:03.108Z,21.95
2018-07-17T19:23:37.596Z,21.89
2018-07-17T19:26:13.302Z,21.81
2018-07-17T19:28:47.661Z,21.77
2018-07-17T19:31:22.363Z,21.82
2018-07-17T19:33:56.823Z,21.92
2018-07-17T19:36:31.406Z,21.96
2018-07-17T19:39:08.844Z,21.97
2018-07-17T19:41:43.226Z,21.92
2018-07-17T19:44:17.740Z,21.90
2018-07-17T19:46:52.057Z,21.83
2018-07-17T19:49:26.467Z,21.73
2018-07-17T19:52:00.950Z,21.62
2018-07-17T19:54:35.408Z,21.61
2018-07-17T19:57:10.128Z,21.54
2018-07-17T19:59:44.876Z,21.48
2018-07-17T20:02:19.318Z,21.35
2018-07-17T20:04:53.892Z,21.25
2018-07-17T20:07:28.395Z,21.16
2018-07-17T20:10:02.862Z,21.23
2018-07-17T20:12:37.392Z,21.17
2018-07-17T20:15:12.065Z,21.11
2018-07-17T20:17:46.529Z,21.00
2018-07-17T20:20:21.141Z,20.93
2018-07-17T20:22:55.626Z,20.84
2018-07-17T20:25:30.261Z,20.69
2018-07-17T20:28:04.815Z,20.62
2018-07-17T20:30:39.313Z,20.50
2018-07-17T20:33:13.941Z,20.42
2018-07-17T20:35:48.506Z,20.38
2018-07-17T20:38:23.101Z,20.30
2018-07-17T20:40:57.537Z,20.20
2018-07-17T20:43:32.141Z,20.06
2018-07-17T20:46:06.733Z,19.98
2018-07-17T20:48:41.232Z,19.89
2018-07-17T20:51:15.876Z,19.79
2018-07-17T20:53:50.483Z,19.71
2018-07-17T20:56:25.007Z,19.65
2018-07-17T20:58:59.485Z,19.58
2018-07-17T21:01:34.231Z,19.50
2018-07-17T21:04:08.736Z,19.47
2018-07-17T21:06:43.305Z,19.49
2018-07-17T21:09:17.924Z,19.48
2018-07-17T21:11:52.497Z,19.44
2018-07-17T21:14:27.086Z,19.39
2018-07-17T21:17:01.577Z,19.33
2018-07-17T21:19:36.204Z,19.23
2018-07-17T21:22:10.973Z,19.15
2018-07-17T21:24:45.484Z,19.06
2018-07-17T21:27:20.046Z,19.01
2018-07-17T21:29:54.705Z,18.92
2018-07-17T21:32:29.169Z,18.87
2018-07-17T21:35:03.809Z,18.82
2018-07-17T21:37:38.736Z,18.73
2018-07-17T21:40:13.319Z,18.68
2018-07-17T21:42:47.916Z,18.61
2018-07-17T21:45:22.464Z,18.50
2018-07-17T21:47:57.034Z,18.46
2018-07-17T21:50:31.385Z,18.46
2018-07-17T21:53:05.940Z,18.39
2018-07-17T21:55:40.541Z,18.34
2018-07-17T21:58:15.174Z,18.34
2018-07-17T22:00:50.042Z,18.30
2018-07-17T22:03:24.647Z,18.25
2018-07-17T22:05:59.426Z,18.16
2018-07-17T22:08:34.113Z,18.13
2018-07-17T22:11:08.646Z,18.13
2018-07-17T22:13:43.173Z,18.10
2018-07-17T22:16:17.689Z,18.03
2018-07-17T22:18:52.399Z,17.98
2018-07-17T22:21:26.989Z,17.90
2018-07-17T22:24:01.437Z,17.84
2018-07-17T22:26:36.040Z,17.78
2018-07-17T22:29:10.670Z,17.70
2018-07-17T22:31:45.259Z,17.62
2018-07-17T22:34:19.601Z,17.57
2018-07-17T22:36:54.136Z,17.49
2018-07-17T22:39:28.827Z,17.38
2018-07-17T22:42:03.381Z,17.36
2018-07-17T22:44:37.868Z,17.33
2018-07-17T22:47:12.432Z,17.31
2018-07-17T22:49:46.845Z,17.25
2018-07-17T22:52:21.306Z,17.23
2018-07-17T22:54:55.996Z,17.17
2018-07-17T22:57:30.657Z,17.14
2018-07-17T23:00:05.821Z,17.10
2018-07-17T23:02:40.268Z,17.05
2018-07-17T23:05:14.888Z,17.03
2018-07-17T23:07:49.448Z,17.03
2018-07-17T23:10:23.995Z,16.98
2018-07-17T23:12:58.567Z,16.91
2018-07-17T23:15:33.872Z,16.89
2018-07-17T23:18:08.409Z,16.83
2018-07-17T23:20:42.845Z,16.79
2018-07-17T23:23:17.327Z,16.86
2018-07-17T23:25:51.737Z,16.82
2018-07-17T23:28:26.366Z,16.74
2018-07-17T23:31:00.972Z,16.72
2018-07-17T23:33:35.356Z,16.68
2018-07-17T23:36:09.828Z,16.64
2018-07-17T23:38:44.489Z,16.65
2018-07-17T23:41:18.831Z,16.59
2018-07-17T23:43:53.244Z,16.63
2018-07-17T23:46:27.794Z,16.54
2018-07-17T23:49:02.292Z,16.46
2018-07-17T23:51:36.948Z,16.41
2018-07-17T23:54:11.348Z,16.39
2018-07-17T23:56:45.847Z,16.36
2018-07-17T23:59:20.451Z,16.38
